createdAt,value
2019-04-10T00:00:55.118Z,67.73
2019-04-10T00:03:31.847Z,68.04
2019-04-10T00:05:52.742Z,68.11
2019-04-10T00:08:20.516Z,68.24
2019-04-10T00:10:48.251Z,68.50
2019-04-10T00:13:16.026Z,68.33
2019-04-10T00:15:43.778Z,68.34
2019-04-10T00:18:11.635Z,68.86
2019-04-10T00:20:39.430Z,68.74
2019-04-10T00:23:08.934Z,68.70
2019-04-10T00:25:37.076Z,68.74
2019-04-10T00:28:05.311Z,68.80
2019-04-10T00:30:33.349Z,69.11
2019-04-10T00:33:01.146Z,69.73
2019-04-10T00:35:29.738Z,69.75
2019-04-10T00:37:57.575Z,69.13
2019-04-10T00:40:25.627Z,69.78
2019-04-10T00:45:21.718Z,70.19
2019-04-10T00:47:49.546Z,70.27
2019-04-10T00:50:18.182Z,70.37
2019-04-10T00:52:46.207Z,70.18
2019-04-10T00:55:13.997Z,70.07
2019-04-10T00:57:41.734Z,69.78
2019-04-10T01:00:09.801Z,69.76
2019-04-10T01:02:37.664Z,70.48
2019-04-10T01:05:05.601Z,70.38
2019-04-10T01:07:39.429Z,70.42
2019-04-10T01:10:04.358Z,70.16
2019-04-10T01:12:32.131Z,70.22
2019-04-10T01:15:00.261Z,70.49
2019-04-10T01:17:28.552Z,70.17
2019-04-10T01:19:56.551Z,70.23
2019-04-10T01:22:25.316Z,70.27
2019-04-10T01:24:54.338Z,70.49
2019-04-10T01:27:22.241Z,70.90
2019-04-10T01:29:50.003Z,71.19
2019-04-10T01:32:17.728Z,71.04
2019-04-10T01:34:45.549Z,70.54
2019-04-10T01:37:13.442Z,70.37
2019-04-10T01:39:42.262Z,70.44
2019-04-10T01:42:10.050Z,70.41
2019-04-10T01:44:38.568Z,70.16
2019-04-10T01:47:06.773Z,70.14
2019-04-10T01:49:34.638Z,70.31
2019-04-10T01:52:02.381Z,70.53
2019-04-10T01:54:31.120Z,70.87
2019-04-10T01:56:59.715Z,71.07
2019-04-10T01:59:29.902Z,71.30
2019-04-10T02:02:05.463Z,71.43
2019-04-10T02:04:33.204Z,70.97
2019-04-10T02:07:02.081Z,71.50
2019-04-10T02:09:29.866Z,71.69
2019-04-10T02:11:58.522Z,71.53
2019-04-10T02:14:26.352Z,71.44
2019-04-10T02:16:54.897Z,71.56
2019-04-10T02:19:23.852Z,71.89
2019-04-10T02:21:51.893Z,72.22
2019-04-10T02:24:19.634Z,72.67
2019-04-10T02:26:47.739Z,72.63
2019-04-10T02:29:15.607Z,72.54
2019-04-10T02:31:44.216Z,72.40
2019-04-10T02:34:12.900Z,72.40
2019-04-10T02:36:42.419Z,72.64
2019-04-10T02:39:20.640Z,72.75
2019-04-10T02:41:41.422Z,72.62
2019-04-10T02:44:10.237Z,72.50
2019-04-10T02:46:38.857Z,72.81
2019-04-10T02:49:08.117Z,72.55
2019-04-10T02:51:36.350Z,73.24
2019-04-10T02:54:05.099Z,73.31
2019-04-10T02:56:33.250Z,73.70
2019-04-10T02:59:02.683Z,73.05
2019-04-10T03:01:31.562Z,73.37
2019-04-10T03:03:59.458Z,73.50
2019-04-10T03:06:27.377Z,73.70
2019-04-10T03:09:13.820Z,73.61
2019-04-10T03:11:26.482Z,73.92
2019-04-10T03:13:55.597Z,74.00
2019-04-10T03:16:23.709Z,74.12
2019-04-10T03:18:51.507Z,73.95
2019-04-10T03:21:19.238Z,73.98
2019-04-10T03:23:47.567Z,74.09
2019-04-10T03:26:15.438Z,73.95
2019-04-10T03:28:43.206Z,73.96
2019-04-10T03:31:12.935Z,74.58
2019-04-10T03:34:00.993Z,74.51
2019-04-10T03:36:36.019Z,74.67
2019-04-10T03:39:07.947Z,74.75
2019-04-10T03:41:36.663Z,74.99
2019-04-10T03:44:04.592Z,75.24
2019-04-10T03:46:33.237Z,74.83
2019-04-10T03:49:01.239Z,75.07
2019-04-10T03:51:30.297Z,74.87
2019-04-10T03:53:58.462Z,74.68
2019-04-10T03:56:26.678Z,75.24
2019-04-10T03:58:54.412Z,75.32
2019-04-10T04:01:22.991Z,75.46
2019-04-10T04:03:51.153Z,74.82
2019-04-10T04:06:19.575Z,75.48
2019-04-10T04:08:47.957Z,75.67
2019-04-10T04:11:17.613Z,75.98
2019-04-10T04:13:45.905Z,76.15
2019-04-10T04:16:13.653Z,76.46
2019-04-10T04:18:41.553Z,75.96
2019-04-10T04:21:09.747Z,75.87
2019-04-10T04:23:38.284Z,75.50
2019-04-10T04:26:07.160Z,75.81
2019-04-10T04:28:34.981Z,76.22
2019-04-10T04:31:03.124Z,76.46
2019-04-10T04:33:31.906Z,76.27
2019-04-10T04:35:59.924Z,75.79
2019-04-10T04:38:27.742Z,75.34
2019-04-10T04:40:55.604Z,74.79
2019-04-10T04:43:23.429Z,75.01
2019-04-10T04:45:51.607Z,74.65
2019-04-10T04:48:19.569Z,75.07
2019-04-10T04:50:47.427Z,75.06
2019-04-10T04:53:16.236Z,74.68
2019-04-10T04:55:44.972Z,74.58
2019-04-10T04:58:13.768Z,74.39
2019-04-10T05:00:41.805Z,74.03
2019-04-10T05:03:10.012Z,74.18
2019-04-10T05:05:37.781Z,73.63
2019-04-10T05:08:06.861Z,74.33
2019-04-10T05:10:35.670Z,73.71
2019-04-10T05:13:04.051Z,73.60
2019-04-10T05:15:31.880Z,73.26
2019-04-10T05:17:59.764Z,73.31
2019-04-10T05:20:39.458Z,73.52
2019-04-10T05:22:57.629Z,73.10
2019-04-10T05:25:25.408Z,73.06
2019-04-10T05:27:53.272Z,72.78
2019-04-10T05:30:21.034Z,72.90
2019-04-10T05:32:49.367Z,72.19
2019-04-10T05:35:17.290Z,71.58
2019-04-10T05:37:45.698Z,71.29
2019-04-10T05:40:13.576Z,71.04
2019-04-10T05:42:41.606Z,70.48
2019-04-10T05:45:09.712Z,70.12
2019-04-10T05:47:38.459Z,69.41
2019-04-10T05:50:07.110Z,68.04
2019-04-10T05:52:35.334Z,67.91
2019-04-10T05:55:04.199Z,67.60
2019-04-10T05:57:32.885Z,67.92
2019-04-10T06:00:00.728Z,67.03
2019-04-10T06:02:28.495Z,67.47
2019-04-10T06:04:56.282Z,67.34
2019-04-10T06:07:24.027Z,67.74
2019-04-10T06:09:55.818Z,67.54
2019-04-10T06:12:22.351Z,66.98
2019-04-10T06:14:50.480Z,66.67
2019-04-10T06:17:18.455Z,66.54
2019-04-10T06:19:46.829Z,66.38
2019-04-10T06:22:14.712Z,65.95
2019-04-10T06:24:42.571Z,65.12
2019-04-10T06:27:10.417Z,64.88
2019-04-10T06:29:39.331Z,64.82
2019-04-10T06:32:07.397Z,64.06
2019-04-10T06:34:36.295Z,62.26
2019-04-10T06:37:04.228Z,61.86
2019-04-10T06:39:33.004Z,61.42
2019-04-10T06:42:00.905Z,60.68
2019-04-10T06:44:28.665Z,59.62
2019-04-10T06:46:57.044Z,59.09
2019-04-10T06:49:24.965Z,58.43
2019-04-10T06:51:53.527Z,56.96
2019-04-10T06:54:21.358Z,56.75
2019-04-10T06:56:50.282Z,57.05
2019-04-10T06:59:18.120Z,57.82
2019-04-10T07:01:51.214Z,57.71
2019-04-10T07:04:15.570Z,58.17
2019-04-10T07:06:52.824Z,57.77
2019-04-10T07:09:21.374Z,58.47
2019-04-10T07:11:53.442Z,59.02
2019-04-10T07:14:18.461Z,59.02
2019-04-10T07:16:46.507Z,58.68
2019-04-10T07:19:14.287Z,58.87
2019-04-10T07:21:42.691Z,58.43
2019-04-10T07:24:12.206Z,58.48
2019-04-10T07:26:43.728Z,58.15
2019-04-10T07:29:10.948Z,56.52
2019-04-10T07:31:39.766Z,56.29
2019-04-10T07:34:08.727Z,55.54
2019-04-10T07:36:41.636Z,55.08
2019-04-10T07:39:07.698Z,54.45
2019-04-10T07:41:35.584Z,53.23
2019-04-10T07:44:03.727Z,53.10
2019-04-10T07:46:32.575Z,52.95
2019-04-10T07:49:00.744Z,51.88
2019-04-10T07:51:29.730Z,49.78
2019-04-10T07:53:57.794Z,45.31
2019-04-10T07:56:26.665Z,41.37
2019-04-10T07:58:54.569Z,36.35
2019-04-10T08:01:22.332Z,29.85
2019-04-10T08:03:52.389Z,26.39
2019-04-10T08:06:20.006Z,21.98
2019-04-10T08:08:47.813Z,20.22
2019-04-10T08:11:15.552Z,18.67
2019-04-10T08:13:43.327Z,17.63
2019-04-10T08:16:11.257Z,16.68
2019-04-10T08:18:39.461Z,15.73
2019-04-10T08:21:08.272Z,15.50
2019-04-10T08:23:36.032Z,15.32
2019-04-10T08:26:03.874Z,15.06
2019-04-10T08:28:32.794Z,14.85
2019-04-10T08:31:01.008Z,14.37
2019-04-10T08:33:30.123Z,15.55
2019-04-10T08:35:58.935Z,14.82
2019-04-10T08:38:27.939Z,13.78
2019-04-10T08:40:56.607Z,13.05
2019-04-10T08:43:24.518Z,12.76
2019-04-10T08:45:53.677Z,14.33
2019-04-10T08:48:22.010Z,13.66
2019-04-10T08:50:50.373Z,13.27
2019-04-10T08:53:18.190Z,12.58
2019-04-10T08:55:46.231Z,12.17
2019-04-10T08:58:14.513Z,11.13
2019-04-10T09:00:42.846Z,12.63
2019-04-10T09:03:10.896Z,12.79
2019-04-10T09:05:38.797Z,12.48
2019-04-10T09:08:06.543Z,11.81
2019-04-10T09:10:34.868Z,11.26
2019-04-10T09:13:02.604Z,10.79
2019-04-10T09:15:30.352Z,11.80
2019-04-10T09:17:58.077Z,11.70
2019-04-10T09:20:26.785Z,11.65
2019-04-10T09:23:13.402Z,11.36
2019-04-10T09:25:24.924Z,12.10
2019-04-10T09:27:53.815Z,10.62
2019-04-10T09:30:21.688Z,9.64
2019-04-10T09:32:49.425Z,9.13
2019-04-10T09:35:18.293Z,8.89
2019-04-10T09:37:46.285Z,8.65
2019-04-10T09:40:14.415Z,8.77
2019-04-10T09:42:42.202Z,8.17
2019-04-10T09:45:10.056Z,7.76
2019-04-10T09:47:37.803Z,7.61
2019-04-10T09:50:07.707Z,8.04
2019-04-10T09:52:35.763Z,9.95
2019-04-10T09:55:05.126Z,9.46
2019-04-10T09:57:32.860Z,9.02
2019-04-10T10:00:00.989Z,8.88
2019-04-10T10:02:28.754Z,8.59
2019-04-10T10:04:56.499Z,9.15
2019-04-10T10:07:24.241Z,8.51
2019-04-10T10:09:52.034Z,7.73
2019-04-10T10:12:20.192Z,8.77
2019-04-10T10:14:48.388Z,8.69
2019-04-10T10:17:16.904Z,8.26
2019-04-10T10:19:45.998Z,8.44
2019-04-10T10:22:14.681Z,7.55
2019-04-10T10:24:42.667Z,7.37
2019-04-10T10:27:10.541Z,7.29
2019-04-10T10:29:38.342Z,6.64
2019-04-10T10:32:06.090Z,6.16
2019-04-10T10:34:34.573Z,6.32
2019-04-10T10:37:03.874Z,6.14
2019-04-10T10:39:31.756Z,6.82
2019-04-10T10:41:59.511Z,6.63
2019-04-10T10:44:27.272Z,6.84
2019-04-10T10:46:55.773Z,7.16
2019-04-10T10:49:24.355Z,7.01
2019-04-10T10:51:53.215Z,7.01
2019-04-10T10:54:21.247Z,7.02
2019-04-10T10:56:49.065Z,7.60
2019-04-10T10:59:17.577Z,7.12
2019-04-10T11:01:46.324Z,7.29
2019-04-10T11:04:15.036Z,6.97
2019-04-10T11:06:51.759Z,7.13
2019-04-10T11:09:15.632Z,7.17
2019-04-10T11:11:43.553Z,6.84
2019-04-10T11:14:11.416Z,7.56
2019-04-10T11:16:39.284Z,6.79
2019-04-10T11:19:07.169Z,6.83
2019-04-10T11:21:35.008Z,6.35
2019-04-10T11:24:03.141Z,5.87
2019-04-10T11:26:31.002Z,6.56
2019-04-10T11:28:59.148Z,6.39
2019-04-10T11:31:26.924Z,6.07
2019-04-10T11:33:56.405Z,6.35
2019-04-10T11:36:24.352Z,6.68
2019-04-10T11:38:55.328Z,6.53
2019-04-10T11:41:23.424Z,6.59
2019-04-10T11:43:52.669Z,6.50
2019-04-10T11:46:22.727Z,8.30
2019-04-10T11:48:51.919Z,9.49
2019-04-10T11:51:23.325Z,8.25
2019-04-10T11:53:54.390Z,7.58
2019-04-10T11:56:21.186Z,7.37
2019-04-10T12:01:21.610Z,6.64
2019-04-10T12:03:51.561Z,8.71
2019-04-10T12:06:20.682Z,7.86
2019-04-10T12:09:08.530Z,8.28
2019-04-10T12:11:19.932Z,7.29
2019-04-10T12:13:46.980Z,6.69
2019-04-10T12:16:14.836Z,8.15
2019-04-10T12:18:42.612Z,8.73
2019-04-10T12:21:10.464Z,8.81
2019-04-10T12:23:38.184Z,8.71
2019-04-10T12:26:05.935Z,7.73
2019-04-10T12:28:33.911Z,8.04
2019-04-10T12:31:01.823Z,8.05
2019-04-10T12:33:29.734Z,6.96
2019-04-10T12:35:58.208Z,6.58
2019-04-10T12:38:26.024Z,6.48
2019-04-10T12:40:53.739Z,6.74
2019-04-10T12:43:21.495Z,7.31
2019-04-10T12:45:49.269Z,7.58
2019-04-10T12:48:20.837Z,7.11
2019-04-10T12:50:49.513Z,6.99
2019-04-10T12:53:17.401Z,6.98
2019-04-10T12:55:45.868Z,6.84
2019-04-10T12:58:17.593Z,7.14
2019-04-10T13:00:44.596Z,8.24
2019-04-10T13:03:12.464Z,7.67
2019-04-10T13:05:41.132Z,7.30
2019-04-10T13:08:19.050Z,8.01
2019-04-10T13:10:39.808Z,7.92
2019-04-10T13:13:07.629Z,7.59
2019-04-10T13:15:35.406Z,7.36
2019-04-10T13:18:03.870Z,8.61
2019-04-10T13:20:31.707Z,10.00
2019-04-10T13:23:00.331Z,9.14
2019-04-10T13:25:28.209Z,8.47
2019-04-10T13:27:56.012Z,8.62
2019-04-10T13:30:24.929Z,8.43
2019-04-10T13:32:53.021Z,9.22
2019-04-10T13:35:21.941Z,8.00
2019-04-10T13:37:50.638Z,8.43
2019-04-10T13:40:19.443Z,8.54
2019-04-10T13:42:47.455Z,9.17
2019-04-10T13:45:17.425Z,9.10
2019-04-10T13:47:45.299Z,9.64
2019-04-10T13:50:13.200Z,10.93
2019-04-10T13:52:42.928Z,10.56
2019-04-10T13:55:11.697Z,10.57
2019-04-10T13:57:39.574Z,11.88
2019-04-10T14:00:13.200Z,13.55
2019-04-10T14:02:41.558Z,12.51
2019-04-10T14:05:11.733Z,11.77
2019-04-10T14:07:40.200Z,11.94
2019-04-10T14:10:08.418Z,13.14
2019-04-10T14:12:36.456Z,13.74
2019-04-10T14:15:05.042Z,13.08
2019-04-10T14:17:33.374Z,11.67
2019-04-10T14:20:01.143Z,10.81
2019-04-10T14:22:29.546Z,11.30
2019-04-10T14:24:57.423Z,11.73
2019-04-10T14:27:27.881Z,12.23
2019-04-10T14:29:56.656Z,12.56
2019-04-10T14:32:29.460Z,12.41
2019-04-10T14:34:57.241Z,13.38
2019-04-10T14:37:25.327Z,14.49
2019-04-10T14:39:53.211Z,15.77
2019-04-10T14:42:20.944Z,17.12
2019-04-10T14:44:48.756Z,18.40
2019-04-10T14:47:17.168Z,19.62
2019-04-10T14:49:45.188Z,21.73
2019-04-10T14:52:13.026Z,22.64
2019-04-10T14:54:40.796Z,23.33
2019-04-10T14:57:08.542Z,23.97
2019-04-10T14:59:36.275Z,24.29
2019-04-10T15:02:06.378Z,24.28
2019-04-10T15:04:35.222Z,24.67
2019-04-10T15:07:03.929Z,25.48
2019-04-10T15:09:32.501Z,26.11
2019-04-10T15:12:00.252Z,26.04
2019-04-10T15:14:28.040Z,26.63
2019-04-10T15:17:03.492Z,26.93
2019-04-10T15:19:26.737Z,26.93
2019-04-10T15:21:55.773Z,26.48
2019-04-10T15:24:23.812Z,26.57
2019-04-10T15:26:51.702Z,26.60
2019-04-10T15:29:21.196Z,26.95
2019-04-10T15:31:49.992Z,26.22
2019-04-10T15:34:18.314Z,26.52
2019-04-10T15:36:47.609Z,27.29
2019-04-10T15:39:16.819Z,27.30
2019-04-10T15:41:45.535Z,28.26
2019-04-10T15:44:14.079Z,28.63
2019-04-10T15:46:43.529Z,28.41
2019-04-10T15:49:11.395Z,27.92
2019-04-10T15:51:39.329Z,28.10
2019-04-10T15:54:07.702Z,28.46
2019-04-10T15:56:36.136Z,28.15
2019-04-10T15:59:04.049Z,27.86
2019-04-10T16:01:32.971Z,28.42
2019-04-10T16:04:01.155Z,28.58
2019-04-10T16:06:29.348Z,28.53
2019-04-10T16:08:57.175Z,28.49
2019-04-10T16:11:56.731Z,28.80
2019-04-10T16:14:28.404Z,28.80
2019-04-10T16:17:17.493Z,29.04
2019-04-10T16:20:03.971Z,28.79
2019-04-10T16:22:40.562Z,29.06
2019-04-10T16:25:22.710Z,29.25
2019-04-10T16:27:50.489Z,29.20
2019-04-10T16:30:22.020Z,29.37
2019-04-10T16:32:50.188Z,29.23
2019-04-10T16:35:19.050Z,29.30
2019-04-10T16:37:47.494Z,29.22
2019-04-10T16:40:15.325Z,29.89
2019-04-10T16:42:43.614Z,30.17
2019-04-10T16:45:13.473Z,30.18
2019-04-10T16:47:42.000Z,30.36
2019-04-10T16:50:11.200Z,30.23
2019-04-10T16:52:39.075Z,30.15
2019-04-10T16:55:08.410Z,30.46
2019-04-10T16:57:36.656Z,29.89
2019-04-10T17:00:06.919Z,30.31
2019-04-10T17:02:35.995Z,30.79
2019-04-10T17:05:05.981Z,31.23
2019-04-10T17:07:34.866Z,31.46
2019-04-10T17:10:13.090Z,31.87
2019-04-10T17:12:34.123Z,31.94
2019-04-10T17:15:02.088Z,32.05
2019-04-10T17:17:30.537Z,31.98
2019-04-10T17:19:59.498Z,32.16
2019-04-10T17:22:32.338Z,32.20
2019-04-10T17:24:57.880Z,32.33
2019-04-10T17:27:25.819Z,32.38
2019-04-10T17:29:55.239Z,32.39
2019-04-10T17:32:23.504Z,32.43
2019-04-10T17:34:51.518Z,32.92
2019-04-10T17:37:19.442Z,33.23
2019-04-10T17:39:47.378Z,33.69
2019-04-10T17:42:16.449Z,34.25
2019-04-10T17:44:45.576Z,34.49
2019-04-10T17:47:14.431Z,34.63
2019-04-10T17:49:43.400Z,35.12
2019-04-10T17:52:11.334Z,34.93
2019-04-10T17:54:39.189Z,35.12
2019-04-10T17:57:06.977Z,35.25
2019-04-10T17:59:34.955Z,35.35
2019-04-10T18:02:07.520Z,35.58
2019-04-10T18:04:35.369Z,35.65
2019-04-10T18:07:03.868Z,36.02
2019-04-10T18:09:32.741Z,36.63
2019-04-10T18:12:01.084Z,36.56
2019-04-10T18:14:29.140Z,36.95
2019-04-10T18:16:58.152Z,37.08
2019-04-10T18:19:26.034Z,37.31
2019-04-10T18:21:54.192Z,37.60
2019-04-10T18:24:22.156Z,38.23
2019-04-10T18:26:52.312Z,38.59
2019-04-10T18:29:19.664Z,38.80
2019-04-10T18:31:47.437Z,39.32
2019-04-10T18:34:15.506Z,38.97
2019-04-10T18:36:46.301Z,39.35
2019-04-10T18:39:18.303Z,39.47
2019-04-10T18:41:46.706Z,39.75
2019-04-10T18:44:15.050Z,40.11
2019-04-10T18:46:43.753Z,40.18
2019-04-10T18:49:11.565Z,40.26
2019-04-10T18:51:40.373Z,40.06
2019-04-10T18:54:10.811Z,40.12
2019-04-10T18:56:37.889Z,40.16
2019-04-10T18:59:12.390Z,40.52
2019-04-10T19:01:49.381Z,40.52
2019-04-10T19:04:39.225Z,40.89
2019-04-10T19:07:07.113Z,40.82
2019-04-10T19:09:36.864Z,41.26
2019-04-10T19:12:04.702Z,41.35
2019-04-10T19:14:36.205Z,41.47
2019-04-10T19:17:03.687Z,41.43
2019-04-10T19:19:32.389Z,41.40
2019-04-10T19:22:00.297Z,41.79
2019-04-10T19:24:30.219Z,42.08
2019-04-10T19:26:58.171Z,41.91
2019-04-10T19:29:25.931Z,41.67
2019-04-10T19:31:56.393Z,41.92
2019-04-10T19:34:25.322Z,42.16
2019-04-10T19:36:54.328Z,42.01
2019-04-10T19:39:22.367Z,42.17
2019-04-10T19:41:50.983Z,42.33
2019-04-10T19:44:19.077Z,42.27
2019-04-10T19:46:48.027Z,42.32
2019-04-10T19:49:16.369Z,42.71
2019-04-10T19:51:44.176Z,42.80
2019-04-10T19:54:11.987Z,42.62
2019-04-10T19:56:40.512Z,42.85
2019-04-10T19:59:08.451Z,43.50
2019-04-10T20:01:36.269Z,43.40
2019-04-10T20:04:04.069Z,43.64
2019-04-10T20:06:32.211Z,43.83
2019-04-10T20:09:00.157Z,43.91
2019-04-10T20:11:37.532Z,43.79
2019-04-10T20:13:59.999Z,43.95
2019-04-10T20:16:27.268Z,43.84
2019-04-10T20:18:55.029Z,43.80
2019-04-10T20:21:23.829Z,44.00
2019-04-10T20:23:52.333Z,44.26
2019-04-10T20:26:21.050Z,44.74
2019-04-10T20:28:49.750Z,44.96
2019-04-10T20:31:24.161Z,44.48
2019-04-10T20:33:51.937Z,44.41
2019-04-10T20:36:20.587Z,44.18
2019-04-10T20:38:48.471Z,44.42
2019-04-10T20:41:16.304Z,44.47
2019-04-10T20:43:44.848Z,44.40
2019-04-10T20:46:13.767Z,44.93
2019-04-10T20:48:41.629Z,44.67
2019-04-10T20:51:10.292Z,44.39
2019-04-10T20:53:38.074Z,44.63
2019-04-10T20:56:06.250Z,44.80
2019-04-10T20:58:34.101Z,44.79
2019-04-10T21:01:01.876Z,44.93
2019-04-10T21:03:31.766Z,44.70
2019-04-10T21:06:00.456Z,44.91
2019-04-10T21:08:28.217Z,45.09
2019-04-10T21:10:56.964Z,45.12
2019-04-10T21:13:25.380Z,45.39
2019-04-10T21:15:53.301Z,45.27
2019-04-10T21:18:22.152Z,45.21
2019-04-10T21:20:50.011Z,45.33
2019-04-10T21:23:17.811Z,45.38
2019-04-10T21:25:45.658Z,45.62
2019-04-10T21:28:14.131Z,45.76
2019-04-10T21:30:53.110Z,45.67
2019-04-10T21:33:26.655Z,45.71
2019-04-10T21:35:54.435Z,45.72
2019-04-10T21:38:22.171Z,46.17
2019-04-10T21:40:49.890Z,46.11
2019-04-10T21:43:18.554Z,46.05
2019-04-10T21:45:47.569Z,46.18
2019-04-10T21:48:15.383Z,46.40
2019-04-10T21:50:43.946Z,46.60
2019-04-10T21:53:12.227Z,46.39
2019-04-10T21:55:40.021Z,46.38
2019-04-10T21:58:08.177Z,46.23
2019-04-10T22:00:54.015Z,46.46
2019-04-10T22:03:22.305Z,46.65
2019-04-10T22:05:55.342Z,47.13
2019-04-10T22:08:33.648Z,47.13
2019-04-10T22:11:01.445Z,47.06
2019-04-10T22:13:30.185Z,46.98
2019-04-10T22:15:59.572Z,47.00
2019-04-10T22:18:27.561Z,47.15
2019-04-10T22:20:57.078Z,47.52
2019-04-10T22:23:24.967Z,47.72
2019-04-10T22:25:52.817Z,47.58
2019-04-10T22:28:21.124Z,47.54
2019-04-10T22:30:50.593Z,47.67
2019-04-10T22:33:18.537Z,47.47
2019-04-10T22:35:46.357Z,47.46
2019-04-10T22:38:15.179Z,47.73
2019-04-10T22:40:44.155Z,47.79
2019-04-10T22:43:11.983Z,48.00
2019-04-10T22:45:40.179Z,47.83
2019-04-10T22:48:08.348Z,48.02
2019-04-10T22:50:36.524Z,48.17
2019-04-10T22:53:04.716Z,48.14
2019-04-10T22:55:33.729Z,48.27
2019-04-10T22:58:02.527Z,48.45
2019-04-10T23:00:30.851Z,48.65
2019-04-10T23:02:58.855Z,48.51
2019-04-10T23:05:28.701Z,48.65
2019-04-10T23:07:56.978Z,48.40
2019-04-10T23:10:24.906Z,48.35
2019-04-10T23:12:59.985Z,48.85
2019-04-10T23:15:23.114Z,48.80
2019-04-10T23:17:50.987Z,48.75
2019-04-10T23:20:18.721Z,48.94
2019-04-10T23:22:48.518Z,49.53
2019-04-10T23:25:16.185Z,49.67
2019-04-10T23:27:44.100Z,49.76
2019-04-10T23:30:15.592Z,49.63
2019-04-10T23:32:43.610Z,49.55
2019-04-10T23:35:11.608Z,50.09
2019-04-10T23:37:39.470Z,50.24
2019-04-10T23:40:08.363Z,50.29
2019-04-10T23:42:36.243Z,50.23
2019-04-10T23:45:05.158Z,50.38
2019-04-10T23:47:34.023Z,50.74
2019-04-10T23:50:01.991Z,51.04
2019-04-10T23:52:29.792Z,51.16
2019-04-10T23:54:57.622Z,51.07
2019-04-10T23:57:25.451Z,51.30
2019-04-10T23:59:53.199Z,51.29
